Time;durP1;ratioP1;P1;durP2;ratioP2;P2;SDS_P1;SDS_P2;PMS_P1;PMS_P2;Temp;Humidity;BMP_temperature;BMP_pressure;BME280_temperature;BME280_humidity;BME280_pressure;Samples;Min_cycle;Max_cycle;Signal;HPM_P1;HPM_P2
2022/04/02 00:00:46;;;;;;;5.55;2.85;;;0.30;99.90;;;;;;4980993;28;20095;-79
2022/04/02 00:03:12;;;;;;;4.97;2.83;;;0.20;99.90;;;;;;4980368;28;20422;-79
2022/04/02 00:05:37;;;;;;;4.35;2.63;;;0.20;99.90;;;;;;4980836;28;20375;-79
2022/04/02 00:08:04;;;;;;;4.68;2.70;;;0.20;99.90;;;;;;4993037;28;20034;-78
2022/04/02 00:10:29;;;;;;;3.33;2.38;;;0.10;99.90;;;;;;4980951;28;20072;-79
2022/04/02 00:12:56;;;;;;;6.85;2.65;;;0.10;99.90;;;;;;4980428;28;20034;-79
2022/04/02 00:15:22;;;;;;;5.20;2.97;;;0.10;99.90;;;;;;4996617;28;20034;-78
2022/04/02 00:17:48;;;;;;;5.95;2.50;;;0.10;99.90;;;;;;4996530;28;20049;-78
2022/04/02 00:20:14;;;;;;;5.35;2.58;;;0.10;99.90;;;;;;4995336;28;20045;-78
2022/04/02 00:23:35;;;;;;;4.60;2.55;;;0.10;99.90;;;;;;4996313;28;20083;-78
2022/04/02 00:25:25;;;;;;;5.63;2.80;;;0.10;99.90;;;;;;4996398;28;20133;-79
2022/04/02 00:27:50;;;;;;;4.30;2.45;;;0.10;99.90;;;;;;4996288;28;20128;-79
2022/04/02 00:30:16;;;;;;;3.85;2.63;;;0.10;99.90;;;;;;4993270;28;20512;-79
2022/04/02 00:32:42;;;;;;;7.15;2.90;;;0.00;99.90;;;;;;4976883;28;20051;-79
2022/04/02 00:35:08;;;;;;;5.25;2.90;;;0.00;99.90;;;;;;4962483;28;20038;-78
2022/04/02 00:37:34;;;;;;;3.85;2.70;;;-0.10;99.90;;;;;;4977621;28;20046;-78
2022/04/02 00:40:00;;;;;;;4.82;2.65;;;-0.20;99.90;;;;;;4996089;28;20069;-79
2022/04/02 00:42:26;;;;;;;4.97;2.90;;;-0.30;99.90;;;;;;4979659;28;20041;-78
2022/04/02 00:44:52;;;;;;;4.95;3.05;;;-0.30;99.90;;;;;;4977804;28;20049;-79
2022/04/02 00:47:20;;;;;;;5.95;2.75;;;-0.40;99.90;;;;;;4996675;28;20042;-79
2022/04/02 00:49:46;;;;;;;4.63;2.97;;;-0.40;99.90;;;;;;4980043;28;20034;-79
2022/04/02 00:52:12;;;;;;;5.18;3.10;;;-0.50;99.90;;;;;;4996011;28;20566;-78
2022/04/02 00:54:39;;;;;;;5.32;2.95;;;-0.60;99.90;;;;;;4996329;28;20042;-79
2022/04/02 00:57:05;;;;;;;3.35;2.50;;;-0.60;99.90;;;;;;4970615;28;20049;-78
2022/04/02 00:59:30;;;;;;;5.28;2.97;;;-0.70;99.90;;;;;;4981720;28;20041;-78
2022/04/02 01:01:56;;;;;;;5.40;3.47;;;-0.70;99.90;;;;;;4979471;28;20042;-78
2022/04/02 01:04:22;;;;;;;5.53;3.22;;;-0.70;99.90;;;;;;4996080;28;20096;-79
2022/04/02 01:06:48;;;;;;;4.93;3.03;;;-0.70;99.90;;;;;;4995693;28;20041;-78
2022/04/02 01:09:13;;;;;;;5.60;3.47;;;-0.70;99.90;;;;;;4995152;28;20077;-78
2022/04/02 01:11:41;;;;;;;4.35;2.85;;;-0.60;99.90;;;;;;4995416;28;20084;-78
2022/04/02 01:14:07;;;;;;;4.90;2.88;;;-0.60;99.90;;;;;;4995146;28;20038;-78
2022/04/02 01:16:34;;;;;;;6.45;2.88;;;-0.60;99.90;;;;;;4995429;28;20132;-79
2022/04/02 01:19:00;;;;;;;4.80;3.13;;;-0.60;99.90;;;;;;4979024;28;20050;-79
2022/04/02 01:21:27;;;;;;;5.25;3.38;;;-0.50;99.90;;;;;;4995198;28;20120;-78
2022/04/02 01:23:54;;;;;;;4.78;2.70;;;-0.50;99.90;;;;;;4979274;28;20062;-78
2022/04/02 01:26:20;;;;;;;5.45;3.17;;;-0.50;99.90;;;;;;4995102;28;20057;-78
2022/04/02 01:28:53;;;;;;;4.82;3.03;;;-0.40;99.90;;;;;;4994960;28;20056;-78
2022/04/02 01:31:21;;;;;;;4.75;3.40;;;-0.50;99.90;;;;;;4978240;28;20195;-78
2022/04/02 01:33:50;;;;;;;5.00;3.10;;;-0.50;99.90;;;;;;4978709;28;20069;-78
2022/04/02 01:36:17;;;;;;;5.15;3.15;;;-0.50;99.90;;;;;;5004239;28;20074;-78
2022/04/02 01:38:44;;;;;;;5.53;3.00;;;-0.50;99.90;;;;;;4975423;28;20050;-78
2022/04/02 01:41:10;;;;;;;5.07;3.50;;;-0.40;99.90;;;;;;4959527;28;20052;-78
2022/04/02 01:43:35;;;;;;;5.50;3.10;;;-0.50;99.90;;;;;;4969838;28;20116;-78
2022/04/02 01:46:02;;;;;;;5.40;3.00;;;-0.50;99.90;;;;;;4994971;28;20096;-78
2022/04/02 01:48:28;;;;;;;6.50;3.10;;;-0.60;99.90;;;;;;5011441;28;20048;-78
2022/04/02 01:50:54;;;;;;;4.85;3.08;;;-0.60;99.90;;;;;;4994521;28;20109;-78
2022/04/02 01:53:21;;;;;;;7.22;3.30;;;-0.60;99.90;;;;;;4994305;28;20084;-79
2022/04/02 01:55:47;;;;;;;6.68;3.35;;;-0.60;99.90;;;;;;4994966;28;20038;-78
2022/04/02 01:58:13;;;;;;;5.30;3.17;;;-0.60;99.90;;;;;;4991198;28;20069;-78
2022/04/02 02:00:39;;;;;;;5.32;3.20;;;-0.60;99.90;;;;;;4975216;28;20038;-78
2022/04/02 02:03:06;;;;;;;6.13;3.20;;;-0.60;99.90;;;;;;4975123;28;20093;-78
2022/04/02 02:05:33;;;;;;;4.65;3.10;;;-0.60;99.90;;;;;;4965062;28;20034;-78
2022/04/02 02:07:59;;;;;;;7.55;3.08;;;-0.60;99.90;;;;;;4994200;28;20048;-78
2022/04/02 02:10:24;;;;;;;5.35;3.17;;;-0.60;99.90;;;;;;4994426;28;20136;-78
2022/04/02 02:12:50;;;;;;;4.22;2.78;;;-0.60;99.90;;;;;;4977815;28;20037;-78
2022/04/02 02:15:18;;;;;;;5.32;2.67;;;-0.70;99.90;;;;;;4978507;28;20346;-78
2022/04/02 02:17:47;;;;;;;5.43;3.33;;;-0.80;99.90;;;;;;4994215;28;20042;-78
2022/04/02 02:20:14;;;;;;;3.53;2.60;;;-0.80;99.90;;;;;;4977908;28;20038;-78
2022/04/02 02:22:41;;;;;;;9.50;3.50;;;-0.80;99.90;;;;;;4978325;28;20034;-79
2022/04/02 02:25:08;;;;;;;4.75;2.85;;;-0.90;99.90;;;;;;4974987;28;20392;-78
2022/04/02 02:27:35;;;;;;;5.40;2.90;;;-0.90;99.90;;;;;;4977470;28;20127;-78
2022/04/02 02:30:03;;;;;;;4.78;3.00;;;-1.00;99.90;;;;;;4974440;28;20038;-78
2022/04/02 02:32:31;;;;;;;5.70;3.20;;;-1.10;99.90;;;;;;4958686;28;20054;-78
2022/04/02 02:37:42;;;;;;;7.20;3.22;;;-1.20;99.90;;;;;;4974755;28;20054;-78
2022/04/02 02:40:10;;;;;;;5.63;3.05;;;-1.30;99.90;;;;;;4988345;28;20056;-78
2022/04/02 02:42:36;;;;;;;5.07;3.20;;;-1.30;99.90;;;;;;4987021;28;20120;-78
2022/04/02 02:45:02;;;;;;;4.95;3.05;;;-1.30;99.90;;;;;;5000660;28;20125;-78
2022/04/02 02:47:27;;;;;;;5.85;3.28;;;-1.40;99.90;;;;;;4984509;28;20428;-78
2022/04/02 02:49:53;;;;;;;7.38;3.78;;;-1.30;99.90;;;;;;4984258;28;20037;-78
2022/04/02 02:52:19;;;;;;;7.10;3.25;;;-1.40;99.90;;;;;;5000534;28;20411;-78
2022/04/02 02:54:44;;;;;;;7.38;3.60;;;-1.40;99.90;;;;;;4983995;28;20826;-78
2022/04/02 02:57:10;;;;;;;5.00;3.13;;;-1.40;99.90;;;;;;5000567;28;20041;-78
2022/04/02 02:59:36;;;;;;;6.30;3.67;;;-1.40;99.90;;;;;;4983963;28;20077;-78
2022/04/02 03:02:03;;;;;;;7.47;3.70;;;-1.40;99.90;;;;;;4984284;28;20061;-78
2022/04/02 03:04:30;;;;;;;5.18;3.47;;;-1.40;99.90;;;;;;4984131;28;20149;-78
2022/04/02 03:06:56;;;;;;;7.95;3.60;;;-1.30;99.90;;;;;;5000514;28;20404;-78
2022/04/02 03:09:22;;;;;;;5.95;3.45;;;-1.20;99.90;;;;;;4984003;28;20042;-78
2022/04/02 03:11:47;;;;;;;8.27;3.53;;;-1.10;99.90;;;;;;5000444;28;20041;-78
2022/04/02 03:14:13;;;;;;;5.82;3.28;;;-1.10;99.90;;;;;;4983971;28;20395;-78
2022/04/02 03:16:38;;;;;;;7.70;3.30;;;-1.10;99.90;;;;;;4984183;28;20516;-78
2022/04/02 03:19:06;;;;;;;6.00;3.47;;;-1.00;99.90;;;;;;4983932;28;20046;-78
2022/04/02 03:21:32;;;;;;;7.47;3.53;;;-1.00;99.90;;;;;;4984048;28;20064;-78
2022/04/02 03:23:57;;;;;;;8.23;3.22;;;-1.10;99.90;;;;;;4983552;28;20038;-78
2022/04/02 03:26:25;;;;;;;6.63;3.30;;;-1.10;99.90;;;;;;5016468;28;20116;-78
2022/04/02 03:28:51;;;;;;;5.22;3.15;;;-1.10;99.90;;;;;;4984097;28;20052;-78
2022/04/02 03:31:16;;;;;;;5.63;3.38;;;-1.10;99.90;;;;;;5000112;28;20045;-78
2022/04/02 03:33:42;;;;;;;5.15;3.65;;;-1.10;99.90;;;;;;4983949;28;20046;-78
2022/04/02 03:36:10;;;;;;;6.03;3.20;;;-1.10;99.90;;;;;;5000249;28;20048;-79
2022/04/02 03:38:37;;;;;;;5.72;3.30;;;-1.20;99.90;;;;;;4999786;28;20049;-78
2022/04/02 03:41:04;;;;;;;6.80;3.58;;;-1.10;99.90;;;;;;4969784;28;20536;-78
2022/04/02 03:43:30;;;;;;;6.63;3.30;;;-1.10;99.90;;;;;;4980647;28;20042;-79
2022/04/02 03:47:08;;;;;;;4.28;2.90;;;-1.10;99.90;;;;;;4984291;28;20040;-78
2022/04/02 03:48:42;;;;;;;6.70;3.33;;;-1.10;99.90;;;;;;5000276;28;20128;-78
2022/04/02 03:51:07;;;;;;;5.72;3.42;;;-1.20;99.90;;;;;;4999988;28;20128;-78
2022/04/02 03:53:33;;;;;;;7.13;3.47;;;-1.20;99.90;;;;;;5014894;28;20072;-78
2022/04/02 03:55:58;;;;;;;6.68;3.67;;;-1.20;99.90;;;;;;4996510;28;20042;-78
2022/04/02 03:58:24;;;;;;;4.03;3.15;;;-1.30;99.90;;;;;;4981409;28;20042;-78
2022/04/02 04:00:50;;;;;;;6.68;3.70;;;-1.30;99.90;;;;;;4981187;28;20057;-78
2022/04/02 04:03:16;;;;;;;5.93;3.47;;;-1.40;99.90;;;;;;4996973;28;20034;-78
2022/04/02 04:05:43;;;;;;;8.63;4.15;;;-1.40;99.90;;;;;;4996981;28;20038;-78
2022/04/02 04:08:09;;;;;;;7.30;3.28;;;-1.40;99.90;;;;;;4980845;28;20038;-78
2022/04/02 04:10:35;;;;;;;5.85;3.47;;;-1.40;99.90;;;;;;4980988;28;20068;-78
2022/04/02 04:13:00;;;;;;;5.30;3.70;;;-1.40;99.90;;;;;;4980495;28;20095;-78
2022/04/02 04:15:26;;;;;;;6.97;4.10;;;-1.40;99.90;;;;;;4981159;28;20428;-78
2022/04/02 04:17:52;;;;;;;6.97;3.38;;;-1.50;99.90;;;;;;4986929;28;20037;-78
2022/04/02 04:20:18;;;;;;;5.35;3.03;;;-1.60;99.90;;;;;;4997023;28;20049;-78
2022/04/02 04:22:44;;;;;;;5.60;3.95;;;-1.60;99.90;;;;;;4996772;28;20073;-78
2022/04/02 04:25:10;;;;;;;8.00;3.65;;;-1.70;99.90;;;;;;4980610;28;20041;-78
2022/04/02 04:27:37;;;;;;;6.93;3.70;;;-1.70;99.90;;;;;;4996160;28;20041;-78
2022/04/02 04:30:03;;;;;;;6.60;3.97;;;-1.60;99.90;;;;;;4980606;28;20042;-78
2022/04/02 04:32:30;;;;;;;6.47;3.40;;;-1.60;99.90;;;;;;4996730;28;20045;-78
2022/04/02 04:34:55;;;;;;;6.43;3.58;;;-1.50;99.90;;;;;;4980368;28;20038;-78
2022/04/02 04:37:21;;;;;;;5.05;3.15;;;-1.50;99.90;;;;;;4980393;28;20079;-78
2022/04/02 04:39:46;;;;;;;6.07;4.13;;;-1.40;99.90;;;;;;4980204;28;20409;-78
2022/04/02 04:42:12;;;;;;;7.25;3.67;;;-1.40;99.90;;;;;;4980100;28;20092;-78
2022/04/02 04:44:38;;;;;;;5.18;3.20;;;-1.40;99.90;;;;;;4980475;28;20038;-78
2022/04/02 04:47:04;;;;;;;5.97;3.28;;;-1.30;99.90;;;;;;4996327;28;20513;-78
2022/04/02 04:49:30;;;;;;;9.32;3.65;;;-1.30;99.90;;;;;;4993242;28;20628;-78
2022/04/02 04:51:55;;;;;;;5.40;3.50;;;-1.30;99.90;;;;;;4987016;28;20038;-78
2022/04/02 04:54:21;;;;;;;4.57;3.22;;;-1.30;99.90;;;;;;4996051;28;20148;-78
2022/04/02 04:56:46;;;;;;;5.10;3.20;;;-1.30;99.90;;;;;;4980584;28;20080;-78
2022/04/02 04:59:12;;;;;;;6.50;3.50;;;-1.30;99.90;;;;;;4996151;28;20045;-78
2022/04/02 05:01:38;;;;;;;5.45;3.05;;;-1.30;99.90;;;;;;4979885;28;20499;-78
2022/04/02 05:04:05;;;;;;;5.03;3.10;;;-1.30;99.90;;;;;;4996254;28;20049;-78
2022/04/02 05:06:33;;;;;;;5.88;3.53;;;-1.30;99.90;;;;;;4996377;28;20204;-78
2022/04/02 05:08:58;;;;;;;7.13;3.72;;;-1.30;99.90;;;;;;4976171;28;20046;-78
2022/04/02 05:11:24;;;;;;;5.95;3.95;;;-1.30;99.90;;;;;;4977291;28;20048;-78
2022/04/02 05:13:50;;;;;;;7.30;4.38;;;-1.30;99.90;;;;;;4960395;28;20519;-78
2022/04/02 05:16:15;;;;;;;4.68;3.40;;;-1.30;99.90;;;;;;4976467;28;20056;-78
2022/04/02 05:18:42;;;;;;;5.82;3.80;;;-1.40;99.90;;;;;;4979023;28;20042;-78
2022/04/02 05:21:10;;;;;;;7.10;4.00;;;-1.40;99.90;;;;;;4979824;28;20030;-78
2022/04/02 05:23:36;;;;;;;7.50;3.80;;;-1.40;99.90;;;;;;4979846;28;20038;-78
2022/04/02 05:26:02;;;;;;;5.75;3.83;;;-1.40;99.90;;;;;;4995793;28;20037;-78
2022/04/02 05:28:28;;;;;;;7.85;4.15;;;-1.40;99.90;;;;;;4962098;28;20485;-78
2022/04/02 05:30:54;;;;;;;6.97;4.28;;;-1.30;99.90;;;;;;4979227;28;20042;-78
2022/04/02 05:33:21;;;;;;;5.50;3.30;;;-1.30;99.90;;;;;;4979220;28;20500;-78
2022/04/02 05:35:47;;;;;;;5.95;3.10;;;-1.30;99.90;;;;;;4995328;28;20033;-78
2022/04/02 05:38:13;;;;;;;6.07;3.72;;;-1.30;99.90;;;;;;4995878;28;20500;-78
2022/04/02 05:40:38;;;;;;;5.13;3.17;;;-1.30;99.90;;;;;;4995201;28;20049;-78
2022/04/02 05:43:05;;;;;;;4.97;3.10;;;-1.20;99.90;;;;;;4994146;28;20030;-78
2022/04/02 05:45:32;;;;;;;6.78;3.28;;;-1.20;99.90;;;;;;4975307;28;20034;-78
2022/04/02 05:47:57;;;;;;;5.45;3.33;;;-1.20;99.90;;;;;;4975686;28;20749;-79
2022/04/02 05:50:25;;;;;;;7.05;3.30;;;-1.10;99.90;;;;;;4978787;28;20038;-78
2022/04/02 05:52:51;;;;;;;6.53;3.22;;;-1.10;99.90;;;;;;4978734;28;20404;-79
2022/04/02 05:55:17;;;;;;;6.15;3.50;;;-1.00;99.90;;;;;;4978825;28;20048;-78
2022/04/02 05:57:44;;;;;;;5.57;3.03;;;-0.90;99.90;;;;;;4974965;28;20042;-78
2022/04/02 06:00:12;;;;;;;5.35;3.42;;;-0.90;99.90;;;;;;4975524;28;20042;-78
2022/04/02 06:02:39;;;;;;;4.75;3.20;;;-0.80;99.90;;;;;;4959168;28;20041;-79
2022/04/02 06:05:07;;;;;;;5.18;2.70;;;-0.70;99.90;;;;;;4963248;28;20043;-78
2022/04/02 06:07:33;;;;;;;5.85;3.13;;;-0.70;99.90;;;;;;4959396;28;20042;-78
2022/04/02 06:09:59;;;;;;;4.45;3.20;;;-0.60;99.90;;;;;;4994456;28;20501;-78
2022/04/02 06:12:25;;;;;;;8.00;3.97;;;-0.50;99.90;;;;;;4994713;28;20046;-79
2022/04/02 06:14:50;;;;;;;5.35;3.03;;;-0.40;99.90;;;;;;4978177;28;20408;-79
2022/04/02 06:17:16;;;;;;;4.32;3.42;;;-0.30;99.90;;;;;;4978016;28;20088;-79
2022/04/02 06:19:41;;;;;;;8.23;4.03;;;-0.20;99.90;;;;;;5009179;28;20496;-78
2022/04/02 06:22:07;;;;;;;6.97;3.50;;;-0.10;99.90;;;;;;4994570;28;20112;-79
2022/04/02 06:24:34;;;;;;;6.43;3.40;;;0.00;99.90;;;;;;4991187;28;20053;-79
2022/04/02 06:26:59;;;;;;;5.95;3.35;;;0.10;99.90;;;;;;4986128;28;20519;-79
2022/04/02 06:29:25;;;;;;;7.63;3.38;;;0.30;99.90;;;;;;4979088;28;20077;-79
2022/04/02 06:31:51;;;;;;;5.72;3.08;;;0.40;99.90;;;;;;4995675;28;20044;-79
2022/04/02 06:34:17;;;;;;;5.25;2.97;;;0.50;99.90;;;;;;4995445;28;20472;-79
2022/04/02 06:36:43;;;;;;;5.60;2.80;;;0.60;99.90;;;;;;4979814;28;20052;-79
2022/04/02 06:39:12;;;;;;;6.53;3.25;;;0.70;99.90;;;;;;4995633;28;20049;-79
2022/04/02 06:41:37;;;;;;;7.28;3.15;;;0.80;99.90;;;;;;4979045;28;20038;-79
2022/04/02 06:44:04;;;;;;;8.57;4.82;;;0.90;99.90;;;;;;4978136;28;20052;-79
2022/04/02 06:46:29;;;;;;;9.77;5.30;;;0.90;99.90;;;;;;4995496;28;20038;-79
2022/04/02 06:48:55;;;;;;;9.85;6.72;;;1.00;99.90;;;;;;4995203;28;20045;-79
2022/04/02 06:51:23;;;;;;;9.55;5.63;;;1.00;99.90;;;;;;4975763;28;20046;-80
2022/04/02 06:53:49;;;;;;;4.75;3.50;;;1.10;99.90;;;;;;4975095;28;20053;-80
2022/04/02 06:56:14;;;;;;;8.32;4.78;;;1.10;99.90;;;;;;4978275;28;20041;-80
2022/04/02 06:58:40;;;;;;;7.32;5.40;;;1.10;99.90;;;;;;4992623;28;20405;-80
2022/04/02 07:01:06;;;;;;;7.78;4.88;;;1.20;99.90;;;;;;4967411;28;20046;-80
2022/04/02 07:03:31;;;;;;;4.32;3.20;;;1.20;99.90;;;;;;4991283;28;20038;-79
2022/04/02 07:05:57;;;;;;;5.95;3.38;;;1.30;99.90;;;;;;4990412;28;20037;-80
2022/04/02 07:08:23;;;;;;;7.95;3.38;;;1.40;99.90;;;;;;4978313;28;20069;-78
2022/04/02 07:10:48;;;;;;;4.65;2.92;;;1.50;99.90;;;;;;4988714;28;20069;-78
2022/04/02 07:13:15;;;;;;;5.90;3.10;;;1.60;99.90;;;;;;4959089;28;20038;-80
2022/04/02 07:15:40;;;;;;;5.95;3.20;;;1.70;99.90;;;;;;4959664;28;20034;-80
2022/04/02 07:18:08;;;;;;;5.95;3.08;;;1.80;99.90;;;;;;4991338;28;20045;-78
2022/04/02 07:20:35;;;;;;;5.18;3.22;;;1.90;99.90;;;;;;4961928;28;20045;-77
2022/04/02 07:23:08;;;;;;;6.65;2.92;;;2.00;99.90;;;;;;4977863;28;20040;-77
2022/04/02 07:25:36;;;;;;;5.68;3.33;;;2.10;99.90;;;;;;4994290;28;20060;-77
2022/04/02 07:28:04;;;;;;;6.88;3.40;;;2.30;99.90;;;;;;4994233;28;20268;-77
2022/04/02 07:30:32;;;;;;;5.93;3.45;;;2.40;99.90;;;;;;4961348;28;20404;-78
2022/04/02 07:32:57;;;;;;;5.75;3.15;;;2.50;99.90;;;;;;4964144;28;20045;-78
2022/04/02 07:35:23;;;;;;;7.57;3.53;;;2.60;99.90;;;;;;4996854;28;20034;-78
2022/04/02 07:37:55;;;;;;;5.13;3.20;;;2.70;99.90;;;;;;4996728;28;20037;-76
2022/04/02 07:40:28;;;;;;;5.97;3.00;;;2.80;99.90;;;;;;4979674;28;20045;-79
2022/04/02 07:43:23;;;;;;;7.38;3.10;;;2.90;99.90;;;;;;4981456;28;20038;-79
2022/04/02 07:46:04;;;;;;;8.27;2.95;;;3.00;99.90;;;;;;4998137;28;20061;-78
2022/04/02 07:48:32;;;;;;;7.32;3.28;;;3.10;99.90;;;;;;4980723;28;20096;-79
2022/04/02 07:51:03;;;;;;;7.05;3.10;;;3.10;99.90;;;;;;4978415;28;20489;-79
2022/04/02 07:53:34;;;;;;;6.22;3.05;;;3.20;99.90;;;;;;4988550;28;20037;-79
2022/04/02 07:56:03;;;;;;;6.25;3.05;;;3.40;99.90;;;;;;4981715;28;20042;-79
2022/04/02 07:58:34;;;;;;;6.18;3.30;;;3.50;99.90;;;;;;4981617;28;20038;-79
2022/04/02 08:01:04;;;;;;;5.78;2.90;;;3.60;99.90;;;;;;5000175;28;20056;-79
2022/04/02 08:03:31;;;;;;;4.85;2.75;;;3.70;99.90;;;;;;4980901;28;20508;-79
2022/04/02 08:05:57;;;;;;;6.22;3.00;;;3.80;99.90;;;;;;4983160;28;20033;-79
2022/04/02 08:08:25;;;;;;;5.45;3.28;;;3.90;99.90;;;;;;4997263;28;20137;-79
2022/04/02 08:10:52;;;;;;;6.30;2.85;;;3.90;99.90;;;;;;4982364;28;20042;-79
2022/04/02 08:13:19;;;;;;;5.38;3.10;;;4.10;99.90;;;;;;4990715;28;20041;-78
2022/04/02 08:15:45;;;;;;;5.15;2.70;;;4.20;99.90;;;;;;5004263;28;20041;-79
2022/04/02 08:18:13;;;;;;;6.13;3.03;;;4.30;99.90;;;;;;4984264;28;20065;-79
2022/04/02 08:20:42;;;;;;;6.35;3.10;;;4.40;99.90;;;;;;5002842;28;20041;-80
2022/04/02 08:23:23;;;;;;;5.53;2.38;;;4.50;99.90;;;;;;4993831;28;20056;-77
2022/04/02 08:26:02;;;;;;;5.03;3.00;;;4.60;99.90;;;;;;4963946;28;20562;-80
2022/04/02 08:28:51;;;;;;;5.60;2.67;;;4.70;99.90;;;;;;4981425;28;20045;-78
2022/04/02 08:31:30;;;;;;;4.53;2.75;;;4.80;99.90;;;;;;4979101;28;20048;-80
2022/04/02 08:34:26;;;;;;;5.47;2.83;;;5.10;99.90;;;;;;4978590;28;20030;-81
2022/04/02 08:37:05;;;;;;;4.93;2.72;;;5.40;99.90;;;;;;4999914;28;20037;-79
2022/04/02 08:39:39;;;;;;;5.78;2.55;;;5.60;97.60;;;;;;4983722;28;20049;-79
2022/04/02 08:42:42;;;;;;;4.70;2.70;;;5.70;97.20;;;;;;5006022;28;20041;-78
2022/04/02 08:45:12;;;;;;;6.13;2.63;;;5.90;95.40;;;;;;4985270;28;20517;-78
2022/04/02 08:47:56;;;;;;;5.82;2.80;;;6.10;93.80;;;;;;4989849;28;20105;-78
2022/04/02 08:50:34;;;;;;;3.60;2.40;;;6.00;95.00;;;;;;5001241;28;20399;-78
2022/04/02 08:53:18;;;;;;;5.93;2.50;;;5.70;96.60;;;;;;4984225;28;20412;-78
2022/04/02 08:56:00;;;;;;;3.63;2.17;;;5.60;96.90;;;;;;4999788;28;20045;-78
2022/04/02 08:58:56;;;;;;;4.60;2.40;;;5.40;97.40;;;;;;4983399;28;20053;-78
2022/04/02 09:01:37;;;;;;;4.82;2.35;;;5.20;96.90;;;;;;4998818;28;20077;-78
2022/04/02 09:04:33;;;;;;;3.63;2.60;;;5.00;97.90;;;;;;4998199;28;20068;-78
2022/04/02 09:07:47;;;;;;;4.00;2.83;;;4.80;99.30;;;;;;4997699;28;20061;-79
2022/04/02 09:10:34;;;;;;;4.15;2.15;;;4.70;99.90;;;;;;4925361;28;20056;-80
2022/04/02 09:13:18;;;;;;;3.75;2.20;;;4.70;99.50;;;;;;4994630;28;20070;-79
2022/04/02 09:15:56;;;;;;;4.30;2.10;;;4.60;99.90;;;;;;4992757;28;20397;-80
2022/04/02 09:18:52;;;;;;;3.70;2.28;;;4.50;99.90;;;;;;4980571;28;20087;-80
2022/04/02 09:21:34;;;;;;;3.88;2.20;;;4.40;99.80;;;;;;4996675;28;20041;-79
2022/04/02 09:24:14;;;;;;;4.45;1.98;;;4.30;99.90;;;;;;4983152;28;20057;-79
2022/04/02 09:26:58;;;;;;;3.40;1.95;;;4.20;99.90;;;;;;4976278;28;20038;-80
2022/04/02 09:29:30;;;;;;;4.82;2.40;;;4.10;99.90;;;;;;4996418;28;20042;-80
2022/04/02 09:32:09;;;;;;;5.45;2.40;;;4.00;99.90;;;;;;4979397;28;20044;-81
2022/04/02 09:35:11;;;;;;;4.95;2.50;;;4.00;99.90;;;;;;4979173;28;20046;-79
2022/04/02 09:38:02;;;;;;;3.17;2.17;;;4.00;99.90;;;;;;4967945;28;20069;-81
2022/04/02 09:40:43;;;;;;;4.25;2.10;;;4.00;99.90;;;;;;4979480;28;20129;-81
2022/04/02 09:43:21;;;;;;;5.38;2.50;;;4.00;99.90;;;;;;4995707;28;20583;-81
2022/04/02 09:46:07;;;;;;;3.78;2.10;;;4.00;99.90;;;;;;4980006;28;20038;-80
2022/04/02 09:48:58;;;;;;;4.28;2.17;;;4.00;99.90;;;;;;4978021;28;20562;-81
2022/04/02 09:51:34;;;;;;;4.78;2.75;;;4.00;99.90;;;;;;4965230;28;20133;-81
2022/04/02 09:54:22;;;;;;;4.28;2.40;;;4.10;99.90;;;;;;4964438;28;20120;-81
2022/04/02 09:56:56;;;;;;;3.53;2.22;;;4.30;99.90;;;;;;4979490;28;20045;-82
2022/04/02 09:59:37;;;;;;;3.80;1.77;;;4.30;99.90;;;;;;4995591;28;20046;-80
2022/04/02 10:02:05;;;;;;;2.58;1.50;;;4.40;99.90;;;;;;4981141;28;20045;-81
2022/04/02 10:04:47;;;;;;;4.88;2.13;;;4.50;98.80;;;;;;4976269;28;20038;-80
2022/04/02 10:07:28;;;;;;;7.40;2.33;;;4.40;99.90;;;;;;4976784;28;20087;-81
2022/04/02 10:09:55;;;;;;;6.10;2.60;;;4.40;99.90;;;;;;4977214;28;20056;-80
2022/04/02 10:12:26;;;;;;;3.78;1.83;;;4.50;99.90;;;;;;4986776;28;20497;-80
2022/04/02 10:14:57;;;;;;;3.97;2.03;;;4.60;99.90;;;;;;4979631;28;20191;-80
2022/04/02 10:17:28;;;;;;;5.18;2.30;;;4.60;99.90;;;;;;4991932;28;20515;-80
2022/04/02 10:19:55;;;;;;;5.38;3.22;;;4.70;99.90;;;;;;4963210;28;20038;-80
2022/04/02 10:22:38;;;;;;;3.75;2.42;;;4.90;99.90;;;;;;4994764;28;20088;-81
2022/04/02 10:25:10;;;;;;;9.50;4.32;;;5.20;99.90;;;;;;4987426;28;20392;-81
2022/04/02 10:27:38;;;;;;;5.50;2.22;;;5.50;99.90;;;;;;4977604;28;20460;-80
2022/04/02 10:30:24;;;;;;;5.40;2.92;;;5.60;98.10;;;;;;4978590;28;20127;-81
2022/04/02 10:35:45;;;;;;;4.07;1.70;;;5.40;95.80;;;;;;4977496;28;20069;-80
2022/04/02 10:38:24;;;;;;;6.15;3.25;;;5.30;95.90;;;;;;4977166;28;20096;-80
2022/04/02 10:40:54;;;;;;;4.82;2.28;;;4.90;97.50;;;;;;4979037;28;20041;-81
2022/04/02 10:43:27;;;;;;;4.38;2.13;;;4.60;99.50;;;;;;4976830;28;20406;-81
2022/04/02 10:45:53;;;;;;;;;;;4.40;99.90;;;;;;4994899;28;20064;-78
2022/04/02 10:48:40;;;;;;;3.25;1.67;;;4.30;99.90;;;;;;4996314;28;20295;-82
2022/04/02 10:51:13;;;;;;;3.22;1.80;;;4.20;99.90;;;;;;4981862;28;20042;-80
2022/04/02 10:53:42;;;;;;;2.45;1.33;;;4.20;99.90;;;;;;4968388;28;20066;-80
2022/04/02 10:56:15;;;;;;;4.25;1.50;;;4.30;99.90;;;;;;4960197;28;20050;-79
2022/04/02 10:58:49;;;;;;;4.60;1.70;;;4.50;98.20;;;;;;4975855;28;20038;-79
2022/04/02 11:01:18;;;;;;;3.53;1.95;;;4.70;96.20;;;;;;4991808;28;20104;-79
2022/04/02 11:03:52;;;;;;;4.15;1.80;;;4.90;95.00;;;;;;4978423;28;20122;-79
2022/04/02 11:06:45;;;;;;;4.07;1.70;;;5.10;95.80;;;;;;4999495;28;20034;-79
2022/04/02 11:09:29;;;;;;;;;;;5.40;91.20;;;;;;5001171;28;20400;-79
2022/04/02 11:12:03;;;;;;;2.92;1.40;;;5.60;89.70;;;;;;4999550;28;20063;-79
2022/04/02 11:14:45;;;;;;;5.18;1.25;;;6.10;86.30;;;;;;4982968;28;20104;-79
2022/04/02 11:17:32;;;;;;;3.63;1.85;;;6.90;83.00;;;;;;4999360;28;20042;-79
2022/04/02 11:20:08;;;;;;;4.70;1.52;;;7.80;87.30;;;;;;4983310;28;20050;-79
2022/04/02 11:22:52;;;;;;;4.15;1.60;;;8.40;77.70;;;;;;4982686;28;20057;-79
2022/04/02 11:25:28;;;;;;;3.25;1.30;;;8.50;69.10;;;;;;4999131;28;20034;-79
2022/04/02 11:27:58;;;;;;;3.25;1.40;;;8.30;72.70;;;;;;4999546;28;20127;-79
2022/04/02 11:30:29;;;;;;;2.92;1.25;;;7.90;63.40;;;;;;4999081;28;20056;-79
2022/04/02 11:33:23;;;;;;;2.53;1.40;;;7.50;64.40;;;;;;4984674;28;20038;-79
2022/04/02 11:35:55;;;;;;;4.25;1.65;;;7.20;65.10;;;;;;4982262;28;20041;-79
2022/04/02 11:38:21;;;;;;;4.10;1.42;;;6.80;78.70;;;;;;4975417;28;20030;-79
2022/04/02 11:41:02;;;;;;;2.78;1.73;;;6.70;79.10;;;;;;4972281;28;20119;-79
2022/04/02 11:43:36;;;;;;;2.03;1.35;;;7.00;83.60;;;;;;4998315;28;20508;-79
2022/04/02 11:46:04;;;;;;;3.17;1.20;;;7.30;80.20;;;;;;4983211;28;20358;-79
2022/04/02 11:48:59;;;;;;;3.10;1.45;;;7.60;85.30;;;;;;4999111;28;20134;-79
2022/04/02 11:51:30;;;;;;;2.40;1.30;;;7.80;70.50;;;;;;4965898;28;20046;-79
2022/04/02 11:54:08;;;;;;;3.58;1.52;;;8.40;74.20;;;;;;4982977;28;20119;-79
2022/04/02 11:56:43;;;;;;;3.33;1.40;;;9.20;64.80;;;;;;4963619;28;20474;-80
2022/04/02 11:59:16;;;;;;;3.10;1.50;;;9.80;61.50;;;;;;4970845;28;20042;-77
2022/04/02 12:01:50;;;;;;;3.05;1.45;;;10.30;60.50;;;;;;5010953;28;20044;-80
2022/04/02 12:04:25;;;;;;;3.28;1.23;;;10.50;58.60;;;;;;4998274;28;20045;-78
2022/04/02 12:07:02;;;;;;;2.70;1.60;;;10.30;58.90;;;;;;4989056;28;20046;-78
2022/04/02 12:09:50;;;;;;;6.60;3.20;;;9.80;60.90;;;;;;4973637;28;20038;-78
2022/04/02 12:12:29;;;;;;;1.88;1.33;;;9.30;58.40;;;;;;4975288;28;20038;-78
2022/04/02 12:15:34;;;;;;;3.75;1.48;;;8.60;58.40;;;;;;4982948;28;20037;-78
2022/04/02 12:22:47;;;;;;;3.47;1.30;;;7.00;68.90;;;;;;4871753;29;20049;-78
2022/04/02 12:25:44;;;;;;;3.05;1.55;;;6.60;76.20;;;;;;4897949;28;20103;-78
2022/04/02 12:28:19;;;;;;;3.92;2.15;;;6.40;81.90;;;;;;4988856;28;20038;-77
2022/04/02 12:30:48;;;;;;;4.00;1.80;;;6.20;85.50;;;;;;4984947;28;20118;-78
2022/04/02 12:33:18;;;;;;;3.20;1.65;;;6.40;75.00;;;;;;4968322;28;20045;-76
2022/04/02 12:35:47;;;;;;;2.22;1.42;;;6.60;69.00;;;;;;4963938;28;20092;-77
2022/04/02 12:38:24;;;;;;;1.95;1.30;;;6.80;61.90;;;;;;4995956;28;20061;-77
2022/04/02 12:40:50;;;;;;;2.30;1.45;;;7.00;61.10;;;;;;4996115;28;20447;-77
2022/04/02 12:43:27;;;;;;;4.90;2.40;;;7.20;63.40;;;;;;4979862;28;20038;-77
2022/04/02 12:45:55;;;;;;;3.25;1.75;;;7.40;60.50;;;;;;4996326;28;20046;-77
2022/04/02 12:48:21;;;;;;;6.18;3.00;;;7.40;57.80;;;;;;4980269;28;20041;-77
2022/04/02 12:51:01;;;;;;;4.18;1.70;;;7.40;56.90;;;;;;4996692;28;20042;-77
2022/04/02 12:53:37;;;;;;;5.28;1.55;;;7.60;59.50;;;;;;4976818;28;20097;-77
2022/04/02 12:56:06;;;;;;;3.17;1.77;;;8.20;58.40;;;;;;4973384;28;20038;-77
2022/04/02 12:58:36;;;;;;;2.67;1.50;;;8.50;58.50;;;;;;4979712;28;20046;-77
2022/04/02 13:01:30;;;;;;;5.75;1.58;;;9.10;57.00;;;;;;4995836;28;20038;-77
2022/04/02 13:04:03;;;;;;;2.72;1.50;;;9.50;54.70;;;;;;4995804;28;20037;-77
2022/04/02 13:06:32;;;;;;;3.58;1.50;;;9.80;54.70;;;;;;4996264;28;20072;-77
2022/04/02 13:09:05;;;;;;;2.47;1.30;;;9.60;53.30;;;;;;4996220;28;20132;-76
2022/04/02 13:11:35;;;;;;;3.25;1.40;;;9.40;50.90;;;;;;4981591;28;20052;-77
2022/04/02 13:14:12;;;;;;;1.83;1.15;;;8.60;50.10;;;;;;4997516;28;20038;-77
2022/04/02 13:16:39;;;;;;;1.92;1.08;;;7.80;51.50;;;;;;4981625;28;20038;-77
2022/04/02 13:22:01;;;;;;;4.75;1.25;;;7.10;55.40;;;;;;4995315;28;20100;-77
2022/04/02 13:24:33;;;;;;;5.20;1.20;;;8.40;55.80;;;;;;4979084;28;20116;-78